Lordville, New York
Current Conditions -  °F | °C
As of 11:55 PM on Wednesday 22 Oct 2014 (Local Time) from KMSV Reporting Station
Overcast Overcast  
Wind Chill: 39°   Ceiling: 7000
Heat Index: 46°   Visibility: 10mi
Dew Point: 43°   Wind: 20mph
Humidity: 87%   Direction: 340°NNW
Pressure: 29.85"   Gusts: 24mph
Location:  41.9099°N, 75.1815°W
Report Text: KMSV 230355Z AUTO 34017G21KT 10SM FEW040 SCT048 OVC070 08/06 A2985 RMK AO1 P0001
Loading
Personal Weather Stations






























Interactive Weather Map
Tropical Storm Tracking
New forecast layout! Learn more

10-Day Weather Forecast

Advertisements
Track Severe Weather on mobile